Time;durP1;ratioP1;P1;durP2;ratioP2;P2;SDS_P1;SDS_P2;PMS_P1;PMS_P2;Temp;Humidity;BMP_temperature;BMP_pressure;BME280_temperature;BME280_humidity;BME280_pressure;Samples;Min_cycle;Max_cycle;Signal;HPM_P1;HPM_P2
2023/05/05 00:00:54;;;;;;;9.52;4.97;;;23.20;48.10;;;;;;5039544;28;20120;-69
2023/05/05 00:03:21;;;;;;;9.25;5.60;;;23.20;48.10;;;;;;5038993;28;20029;-70
2023/05/05 00:05:48;;;;;;;8.65;4.68;;;23.20;48.10;;;;;;5042882;28;20050;-71
2023/05/05 00:08:14;;;;;;;8.73;4.43;;;23.20;48.10;;;;;;5041393;28;20422;-71
2023/05/05 00:10:41;;;;;;;8.82;5.28;;;23.20;48.10;;;;;;5040698;28;20026;-71
2023/05/05 00:13:07;;;;;;;10.60;5.55;;;23.20;48.10;;;;;;5037605;28;20032;-71
2023/05/05 00:15:33;;;;;;;8.88;4.97;;;23.20;48.10;;;;;;5040157;28;20036;-70
2023/05/05 00:17:58;;;;;;;10.05;5.20;;;23.20;48.10;;;;;;5042564;28;20025;-70
2023/05/05 00:20:24;;;;;;;7.93;4.72;;;23.20;48.10;;;;;;5040175;28;20919;-71
2023/05/05 00:22:50;;;;;;;8.55;5.05;;;23.20;48.10;;;;;;5039572;28;20433;-71
2023/05/05 00:25:15;;;;;;;7.45;4.47;;;23.20;48.10;;;;;;5040652;28;20030;-71
2023/05/05 00:27:41;;;;;;;9.70;5.22;;;23.20;48.10;;;;;;5037091;28;20116;-70
2023/05/05 00:30:07;;;;;;;7.80;4.60;;;23.20;48.10;;;;;;5039268;28;20501;-70
2023/05/05 00:32:32;;;;;;;7.93;4.45;;;23.20;48.10;;;;;;5039442;28;20030;-70
2023/05/05 00:34:59;;;;;;;7.40;4.45;;;23.20;48.10;;;;;;5039683;28;20109;-71
2023/05/05 00:37:24;;;;;;;8.10;4.55;;;23.20;48.10;;;;;;5037561;28;20037;-71
2023/05/05 00:39:50;;;;;;;8.60;4.72;;;23.20;48.10;;;;;;5039092;28;20040;-70
2023/05/05 00:42:16;;;;;;;8.80;4.78;;;23.10;48.10;;;;;;5037933;28;20029;-70
2023/05/05 00:44:42;;;;;;;9.65;4.97;;;23.10;48.10;;;;;;5040967;28;20385;-71
2023/05/05 00:47:08;;;;;;;7.80;4.57;;;23.10;48.10;;;;;;5037909;28;20036;-70
2023/05/05 00:49:35;;;;;;;9.13;4.88;;;23.10;48.10;;;;;;5041136;28;20032;-71
2023/05/05 00:52:02;;;;;;;6.57;4.43;;;23.10;48.10;;;;;;5039134;28;20506;-71
2023/05/05 00:54:28;;;;;;;8.00;4.50;;;23.10;48.10;;;;;;5038667;28;20105;-70
2023/05/05 00:56:54;;;;;;;8.25;4.25;;;23.10;48.10;;;;;;5036771;28;20024;-70
2023/05/05 00:59:20;;;;;;;6.88;4.22;;;23.10;48.30;;;;;;5040244;28;20036;-70
2023/05/05 01:01:45;;;;;;;6.57;4.30;;;23.10;48.20;;;;;;5038958;28;20096;-70
2023/05/05 01:04:11;;;;;;;7.70;4.50;;;23.00;48.10;;;;;;5040348;28;20029;-69
2023/05/05 01:07:02;;;;;;;7.75;4.65;;;23.10;48.10;;;;;;5038279;28;20021;-71
2023/05/05 01:09:48;;;;;;;7.78;4.15;;;23.00;48.10;;;;;;5040864;28;20074;-70
2023/05/05 01:12:13;;;;;;;7.32;4.15;;;23.10;48.20;;;;;;5037534;28;20044;-70
2023/05/05 01:14:51;;;;;;;6.82;4.22;;;23.00;48.10;;;;;;5038254;28;20446;-70
2023/05/05 01:17:20;;;;;;;7.35;4.25;;;23.10;48.20;;;;;;5039572;28;20021;-71
2023/05/05 01:20:15;;;;;;;7.20;4.25;;;23.00;48.20;;;;;;5039553;28;20512;-70
2023/05/05 01:22:56;;;;;;;7.25;4.47;;;23.00;48.10;;;;;;5039151;28;20030;-70
2023/05/05 01:25:40;;;;;;;6.25;3.70;;;23.00;48.10;;;;;;5038289;28;20109;-71
2023/05/05 01:28:44;;;;;;;8.25;4.30;;;23.00;48.20;;;;;;5037333;28;20114;-70
2023/05/05 01:31:35;;;;;;;6.57;3.58;;;23.00;48.10;;;;;;5038810;28;20114;-70
2023/05/05 01:34:08;;;;;;;8.48;4.00;;;23.00;48.10;;;;;;5046436;28;20384;-70
2023/05/05 01:36:51;;;;;;;7.05;3.80;;;23.00;48.20;;;;;;5035763;28;20075;-72
2023/05/05 01:39:18;;;;;;;6.22;3.72;;;23.00;48.10;;;;;;5038740;28;20048;-71
2023/05/05 01:41:49;;;;;;;6.45;3.80;;;23.00;48.20;;;;;;5036636;28;20025;-71
2023/05/05 01:44:17;;;;;;;6.75;3.78;;;23.00;48.20;;;;;;5036748;28;20038;-71
2023/05/05 01:46:43;;;;;;;6.25;3.70;;;23.00;48.20;;;;;;5036826;28;20017;-70
2023/05/05 01:49:11;;;;;;;6.85;3.80;;;23.00;48.20;;;;;;5036687;28;20456;-71
2023/05/05 01:51:38;;;;;;;6.82;3.75;;;23.00;48.20;;;;;;5037137;28;20630;-69
2023/05/05 01:54:07;;;;;;;6.85;3.90;;;23.00;48.20;;;;;;5036198;28;20025;-70
2023/05/05 01:56:36;;;;;;;6.78;3.90;;;23.00;48.20;;;;;;5042440;28;20122;-71
2023/05/05 01:59:03;;;;;;;7.05;3.78;;;23.00;48.20;;;;;;5037169;28;20038;-70
2023/05/05 02:01:30;;;;;;;6.45;3.65;;;23.00;48.20;;;;;;5039449;28;20036;-69
2023/05/05 02:03:57;;;;;;;5.70;3.55;;;22.90;48.10;;;;;;5039717;28;20028;-70
2023/05/05 02:06:24;;;;;;;5.72;3.50;;;23.00;48.20;;;;;;5036276;28;20013;-70
2023/05/05 02:08:51;;;;;;;5.90;3.58;;;22.90;48.10;;;;;;5039368;28;20402;-69
2023/05/05 02:11:18;;;;;;;5.57;3.65;;;22.90;48.10;;;;;;5036952;28;20433;-70
2023/05/05 02:13:44;;;;;;;7.30;4.00;;;22.90;48.20;;;;;;5036627;28;20037;-69
2023/05/05 02:16:11;;;;;;;6.65;3.78;;;22.90;48.20;;;;;;5037525;28;20505;-70
2023/05/05 02:18:37;;;;;;;5.47;3.40;;;22.90;48.10;;;;;;5037110;28;20329;-70
2023/05/05 02:21:04;;;;;;;5.80;3.15;;;22.90;48.70;;;;;;5035679;28;20036;-69
2023/05/05 02:23:30;;;;;;;5.68;3.10;;;22.90;48.20;;;;;;5036877;28;20116;-69
2023/05/05 02:26:18;;;;;;;6.15;3.53;;;22.90;48.20;;;;;;5044574;28;20242;-70
2023/05/05 02:29:14;;;;;;;5.88;3.28;;;22.90;48.20;;;;;;5035996;28;20036;-71
2023/05/05 02:31:49;;;;;;;5.60;3.65;;;22.90;48.20;;;;;;5037435;28;20430;-70
2023/05/05 02:34:21;;;;;;;5.72;3.50;;;22.90;48.20;;;;;;5039317;28;20481;-68
2023/05/05 02:36:51;;;;;;;5.00;3.25;;;22.90;48.20;;;;;;5038087;28;20409;-70
2023/05/05 02:39:24;;;;;;;6.32;3.90;;;22.90;48.20;;;;;;5035588;28;20458;-70
2023/05/05 02:41:54;;;;;;;4.80;2.92;;;22.90;48.20;;;;;;5038228;28;20109;-71
2023/05/05 02:44:22;;;;;;;6.13;3.45;;;22.90;48.20;;;;;;5034778;28;20128;-70
2023/05/05 02:46:48;;;;;;;5.38;3.28;;;22.90;48.20;;;;;;5037697;28;20025;-70
2023/05/05 02:49:14;;;;;;;5.57;3.25;;;22.90;48.20;;;;;;5039861;28;20029;-70
2023/05/05 02:51:39;;;;;;;5.88;3.40;;;22.90;48.20;;;;;;5041538;28;20074;-71
2023/05/05 02:54:05;;;;;;;5.65;3.17;;;22.90;48.20;;;;;;5040296;28;20033;-70
2023/05/05 02:56:42;;;;;;;4.38;2.83;;;22.90;48.20;;;;;;5043757;28;20040;-69
2023/05/05 02:59:32;;;;;;;5.10;3.13;;;22.80;48.20;;;;;;5039507;28;20040;-70
2023/05/05 03:02:07;;;;;;;;;;;22.90;48.20;;;;;;5041179;28;20151;-70
2023/05/05 03:04:55;;;;;;;5.38;3.33;;;22.90;48.20;;;;;;5039176;28;19909;-71
2023/05/05 03:07:41;;;;;;;5.10;3.00;;;22.90;48.20;;;;;;5040242;28;20499;-71
2023/05/05 03:10:15;;;;;;;4.93;3.00;;;22.80;48.10;;;;;;5041862;28;20025;-70
2023/05/05 03:13:00;;;;;;;5.47;3.17;;;22.80;48.20;;;;;;5040627;28;20761;-70
2023/05/05 03:15:30;;;;;;;4.80;2.92;;;22.80;48.10;;;;;;5039277;28;20095;-70
2023/05/05 03:17:57;;;;;;;4.78;3.10;;;22.80;48.20;;;;;;5040473;28;20108;-70
2023/05/05 03:20:24;;;;;;;4.93;3.25;;;22.80;48.20;;;;;;5039304;28;20051;-70
2023/05/05 03:22:50;;;;;;;5.18;3.00;;;22.80;48.20;;;;;;5040144;28;20021;-70
2023/05/05 03:25:16;;;;;;;4.22;2.85;;;22.80;48.20;;;;;;5038901;28;20042;-70
2023/05/05 03:27:42;;;;;;;5.15;3.15;;;22.80;48.20;;;;;;5042508;28;20029;-69
2023/05/05 03:30:08;;;;;;;5.22;3.20;;;22.80;48.20;;;;;;5042085;28;20079;-70
2023/05/05 03:32:33;;;;;;;6.05;3.00;;;22.80;48.20;;;;;;5043426;28;20029;-70
2023/05/05 03:34:59;;;;;;;4.80;2.95;;;22.80;48.20;;;;;;5040109;28;20045;-70
2023/05/05 03:37:25;;;;;;;5.15;2.85;;;22.80;48.20;;;;;;5042450;28;20033;-70
2023/05/05 03:39:50;;;;;;;4.97;2.80;;;22.80;48.20;;;;;;5043508;28;20107;-70
2023/05/05 03:42:16;;;;;;;4.93;3.05;;;22.80;48.20;;;;;;5039684;28;20434;-70
2023/05/05 03:44:42;;;;;;;4.18;2.70;;;22.80;48.20;;;;;;5039869;28;20025;-70
2023/05/05 03:47:07;;;;;;;4.93;3.03;;;22.80;48.20;;;;;;5041748;28;20036;-70
2023/05/05 03:49:33;;;;;;;4.63;3.08;;;22.70;48.20;;;;;;5039365;28;20091;-70
2023/05/05 03:51:59;;;;;;;5.15;2.80;;;22.80;48.20;;;;;;5041572;28;20453;-70
2023/05/05 03:54:24;;;;;;;4.57;3.00;;;22.70;48.20;;;;;;5041284;28;20216;-70
2023/05/05 03:56:50;;;;;;;3.92;2.67;;;22.70;48.20;;;;;;5041039;28;20032;-70
2023/05/05 03:59:16;;;;;;;4.95;2.60;;;22.70;48.20;;;;;;5037638;28;20443;-70
2023/05/05 04:01:43;;;;;;;3.92;2.63;;;22.70;48.20;;;;;;5039462;28;20060;-69
2023/05/05 04:04:09;;;;;;;5.15;2.80;;;22.70;48.20;;;;;;5037899;28;20473;-71
2023/05/05 04:06:35;;;;;;;4.53;2.60;;;22.70;48.20;;;;;;5039997;28;20086;-69
2023/05/05 04:09:00;;;;;;;4.47;2.88;;;22.70;48.20;;;;;;5040928;28;20080;-70
2023/05/05 04:11:26;;;;;;;3.80;2.30;;;22.70;48.20;;;;;;5038382;28;20159;-71
2023/05/05 04:13:51;;;;;;;4.43;2.75;;;22.70;48.10;;;;;;5037074;28;20434;-71
2023/05/05 04:16:17;;;;;;;4.85;2.85;;;22.70;48.10;;;;;;5038568;28;20021;-70
2023/05/05 04:18:42;;;;;;;4.28;2.70;;;22.70;48.10;;;;;;5039199;28;20113;-69
2023/05/05 04:21:08;;;;;;;4.03;2.50;;;22.70;48.00;;;;;;5038765;28;20029;-70
2023/05/05 04:23:34;;;;;;;3.88;2.38;;;22.70;48.00;;;;;;5042514;28;20025;-70
2023/05/05 04:25:59;;;;;;;3.80;2.30;;;22.70;48.00;;;;;;5040806;28;20660;-70
2023/05/05 04:28:25;;;;;;;3.80;2.35;;;22.70;48.00;;;;;;5037114;28;20036;-69
2023/05/05 04:30:51;;;;;;;4.82;2.63;;;22.70;48.00;;;;;;5041010;28;20122;-70
2023/05/05 04:33:16;;;;;;;3.90;2.53;;;22.70;48.00;;;;;;5042453;28;20036;-70
2023/05/05 04:35:42;;;;;;;3.42;2.38;;;22.70;48.00;;;;;;5040628;28;20434;-69
2023/05/05 04:38:07;;;;;;;3.80;2.40;;;22.70;47.90;;;;;;5041403;28;20028;-69
2023/05/05 04:40:38;;;;;;;3.80;2.15;;;22.70;47.90;;;;;;5038444;28;20509;-70
2023/05/05 04:43:05;;;;;;;4.15;2.33;;;22.70;47.90;;;;;;5038928;28;20017;-70
2023/05/05 04:45:31;;;;;;;3.40;1.92;;;22.70;47.90;;;;;;5039754;28;20028;-70
2023/05/05 04:47:56;;;;;;;4.63;2.30;;;22.70;47.90;;;;;;5039064;28;20362;-70
2023/05/05 04:50:22;;;;;;;4.60;2.40;;;22.70;47.90;;;;;;5038674;28;20026;-68
2023/05/05 04:52:48;;;;;;;3.78;2.30;;;22.60;47.80;;;;;;5039044;28;20051;-67
2023/05/05 04:55:13;;;;;;;4.18;2.28;;;22.60;47.90;;;;;;5036361;28;20492;-67
2023/05/05 04:57:39;;;;;;;4.15;2.78;;;22.70;48.00;;;;;;5040122;28;20080;-67
2023/05/05 05:00:06;;;;;;;3.53;2.00;;;22.70;48.00;;;;;;5039859;28;20112;-68
2023/05/05 05:02:32;;;;;;;4.75;2.50;;;22.60;47.90;;;;;;5045135;28;20061;-67
2023/05/05 05:04:57;;;;;;;3.88;2.38;;;22.60;48.00;;;;;;5040875;28;20151;-67
2023/05/05 05:07:23;;;;;;;3.88;2.22;;;22.60;48.00;;;;;;5039969;28;20026;-68
2023/05/05 05:09:49;;;;;;;4.13;2.20;;;22.60;48.00;;;;;;5038339;28;20030;-67
2023/05/05 05:12:14;;;;;;;3.97;2.20;;;22.60;48.00;;;;;;5036921;28;20483;-68
2023/05/05 05:14:40;;;;;;;3.00;2.05;;;22.60;48.00;;;;;;5037667;28;20108;-67
2023/05/05 05:17:05;;;;;;;3.15;1.98;;;22.60;48.10;;;;;;5038673;28;20095;-67
2023/05/05 05:19:31;;;;;;;4.05;2.40;;;22.60;48.10;;;;;;5039944;28;20056;-68
2023/05/05 05:21:57;;;;;;;3.65;2.50;;;22.60;48.10;;;;;;5037682;28;20021;-68
2023/05/05 05:24:24;;;;;;;3.60;2.33;;;22.60;48.10;;;;;;5038862;28;20025;-67
2023/05/05 05:26:50;;;;;;;3.10;2.17;;;22.60;48.10;;;;;;5034474;28;20024;-66
2023/05/05 05:29:16;;;;;;;3.63;2.28;;;22.60;48.10;;;;;;5036861;28;20037;-67
2023/05/05 05:31:41;;;;;;;3.75;2.30;;;22.60;48.10;;;;;;5055062;28;20040;-68
2023/05/05 05:34:07;;;;;;;4.40;2.47;;;22.60;48.10;;;;;;5037045;28;20025;-68
2023/05/05 05:36:33;;;;;;;3.60;2.30;;;22.60;48.10;;;;;;5037425;28;20061;-68
2023/05/05 05:38:58;;;;;;;3.53;2.10;;;22.60;48.10;;;;;;5035357;28;20064;-68
2023/05/05 05:41:24;;;;;;;3.63;2.13;;;22.60;48.10;;;;;;5036911;28;20036;-68
2023/05/05 05:43:49;;;;;;;3.63;2.03;;;22.60;48.20;;;;;;5038031;28;20053;-68
2023/05/05 05:46:15;;;;;;;3.70;2.50;;;22.60;48.10;;;;;;5038762;28;20103;-68
2023/05/05 05:48:40;;;;;;;4.13;2.15;;;22.60;48.10;;;;;;5037711;28;20113;-67
2023/05/05 05:51:06;;;;;;;3.08;2.05;;;22.60;48.20;;;;;;5039838;28;20522;-68
2023/05/05 05:53:32;;;;;;;3.88;2.30;;;22.50;48.10;;;;;;5038617;28;20032;-67
2023/05/05 05:55:57;;;;;;;3.40;1.90;;;22.50;48.10;;;;;;5035458;28;20758;-68
2023/05/05 05:58:23;;;;;;;3.58;2.15;;;22.50;48.10;;;;;;5038634;28;20025;-68
2023/05/05 06:00:49;;;;;;;3.50;2.17;;;22.60;48.20;;;;;;5037981;28;20048;-68
2023/05/05 06:03:14;;;;;;;3.95;2.10;;;22.50;48.10;;;;;;5037611;28;20446;-68
2023/05/05 06:05:40;;;;;;;3.08;1.83;;;22.50;48.20;;;;;;5037084;28;20097;-68
2023/05/05 06:08:06;;;;;;;3.60;2.20;;;22.50;48.10;;;;;;5036615;28;20499;-68
2023/05/05 06:10:32;;;;;;;3.28;2.08;;;22.50;48.20;;;;;;5038418;28;20033;-68
2023/05/05 06:12:57;;;;;;;4.60;2.10;;;22.50;48.20;;;;;;5038344;28;20044;-68
2023/05/05 06:15:24;;;;;;;4.82;2.25;;;22.50;48.20;;;;;;5037190;28;20102;-68
2023/05/05 06:17:50;;;;;;;3.03;2.00;;;22.50;48.20;;;;;;5037421;28;20032;-68
2023/05/05 06:20:15;;;;;;;3.40;2.03;;;22.50;48.20;;;;;;5035934;28;20029;-68
2023/05/05 06:22:41;;;;;;;4.15;2.00;;;22.50;48.20;;;;;;5037943;28;20033;-68
2023/05/05 06:25:07;;;;;;;3.20;1.98;;;22.50;48.20;;;;;;5036839;28;20017;-68
2023/05/05 06:27:33;;;;;;;3.67;1.85;;;22.50;48.20;;;;;;5036803;28;20021;-68
2023/05/05 06:29:58;;;;;;;3.72;2.10;;;22.50;48.20;;;;;;5034338;28;20040;-68
2023/05/05 06:32:24;;;;;;;3.03;1.77;;;22.50;48.20;;;;;;5038323;28;20528;-68
2023/05/05 06:34:50;;;;;;;3.47;2.00;;;22.50;48.20;;;;;;5039226;28;20032;-68
2023/05/05 06:37:15;;;;;;;3.50;1.90;;;22.50;48.20;;;;;;5038929;28;20041;-68
2023/05/05 06:39:41;;;;;;;3.97;2.00;;;22.50;48.80;;;;;;5036221;28;20029;-68
2023/05/05 06:42:06;;;;;;;3.10;1.80;;;22.50;48.30;;;;;;5037893;28;20113;-69
2023/05/05 06:44:33;;;;;;;3.38;2.15;;;22.50;48.30;;;;;;5034379;28;20022;-68
2023/05/05 06:46:59;;;;;;;3.35;2.10;;;22.50;48.30;;;;;;5036372;28;20055;-68
2023/05/05 06:49:24;;;;;;;3.33;1.80;;;22.50;48.20;;;;;;5033963;28;20021;-68
2023/05/05 06:51:50;;;;;;;3.22;1.95;;;22.50;48.30;;;;;;5036830;28;20047;-66
2023/05/05 06:54:16;;;;;;;2.70;1.70;;;22.50;48.30;;;;;;5038584;28;20033;-68
2023/05/05 06:56:41;;;;;;;3.30;1.90;;;22.50;48.30;;;;;;5037409;28;20033;-68
2023/05/05 06:59:07;;;;;;;3.45;2.00;;;22.50;48.30;;;;;;5037190;28;20022;-68
2023/05/05 07:01:32;;;;;;;2.92;1.95;;;22.50;48.30;;;;;;5034037;28;20446;-68
2023/05/05 07:03:58;;;;;;;2.80;1.77;;;22.50;48.30;;;;;;5038851;28;20418;-68
2023/05/05 07:06:23;;;;;;;3.17;1.85;;;22.50;48.30;;;;;;5039744;28;20419;-68
2023/05/05 07:08:49;;;;;;;4.15;2.10;;;22.50;48.30;;;;;;5037933;28;20042;-68
2023/05/05 07:11:14;;;;;;;2.88;1.75;;;22.50;48.30;;;;;;5037690;28;20120;-68
2023/05/05 07:13:40;;;;;;;3.72;2.17;;;22.50;48.30;;;;;;5037435;28;20114;-68
2023/05/05 07:16:06;;;;;;;3.00;1.80;;;22.50;48.30;;;;;;5036035;28;20037;-68
2023/05/05 07:18:31;;;;;;;3.10;2.08;;;22.50;48.30;;;;;;5034833;28;20567;-68
2023/05/05 07:20:57;;;;;;;3.60;2.20;;;22.50;48.40;;;;;;5037887;28;20376;-68
2023/05/05 07:23:23;;;;;;;2.78;1.67;;;22.50;48.40;;;;;;5034042;28;20025;-68
2023/05/05 07:25:48;;;;;;;2.90;1.58;;;22.50;48.40;;;;;;5039993;28;20065;-68
2023/05/05 07:28:14;;;;;;;2.90;1.65;;;22.50;48.40;;;;;;5036792;28;20065;-68
2023/05/05 07:30:40;;;;;;;3.08;1.85;;;22.50;48.40;;;;;;5038031;28;20562;-68
2023/05/05 07:33:06;;;;;;;2.53;1.80;;;22.50;48.40;;;;;;5035159;28;20503;-68
2023/05/05 07:35:31;;;;;;;2.85;1.67;;;22.50;48.40;;;;;;5037855;28;20036;-68
2023/05/05 07:37:57;;;;;;;3.20;1.73;;;22.50;48.40;;;;;;5040011;28;20499;-68
2023/05/05 07:40:22;;;;;;;2.78;1.73;;;22.50;48.40;;;;;;5037510;28;20429;-68
2023/05/05 07:42:48;;;;;;;2.65;1.73;;;22.50;48.40;;;;;;5039174;28;20060;-68
2023/05/05 07:45:13;;;;;;;2.47;1.60;;;22.50;48.40;;;;;;5038950;28;20037;-68
2023/05/05 07:47:39;;;;;;;3.00;2.00;;;22.50;48.40;;;;;;5040374;28;20108;-69
2023/05/05 07:50:05;;;;;;;2.70;1.90;;;22.50;48.40;;;;;;5040388;28;20033;-68
2023/05/05 07:52:31;;;;;;;2.70;1.60;;;22.50;48.40;;;;;;5041542;28;20040;-68
2023/05/05 07:54:57;;;;;;;2.38;1.50;;;22.40;48.40;;;;;;5040935;28;20037;-68
2023/05/05 07:57:22;;;;;;;3.05;1.70;;;22.50;48.50;;;;;;5038254;28;20533;-68
2023/05/05 07:59:48;;;;;;;2.80;1.80;;;22.50;48.50;;;;;;5038412;28;20077;-68
2023/05/05 08:02:13;;;;;;;3.33;1.77;;;22.40;48.40;;;;;;5037851;28;20025;-68
2023/05/05 08:04:40;;;;;;;2.80;1.70;;;22.50;48.50;;;;;;5040847;28;20410;-68
2023/05/05 08:07:07;;;;;;;3.45;1.95;;;22.40;48.50;;;;;;5038779;28;20021;-68
2023/05/05 08:09:36;;;;;;;2.58;1.70;;;22.50;48.50;;;;;;5045366;28;20513;-68
2023/05/05 08:12:02;;;;;;;2.50;1.60;;;22.40;48.50;;;;;;5041529;28;20099;-68
2023/05/05 08:14:29;;;;;;;2.53;1.70;;;22.50;48.50;;;;;;5041708;28;20028;-69
2023/05/05 08:16:55;;;;;;;3.45;1.70;;;22.40;48.50;;;;;;5040126;28;20075;-68
2023/05/05 08:19:22;;;;;;;2.50;1.60;;;22.40;48.50;;;;;;5039261;28;20486;-69
2023/05/05 08:21:47;;;;;;;2.67;1.55;;;22.50;48.60;;;;;;5041790;28;20017;-69
2023/05/05 08:24:13;;;;;;;2.75;1.67;;;22.50;48.60;;;;;;5037945;28;20022;-68
2023/05/05 08:26:39;;;;;;;3.20;1.80;;;22.50;48.60;;;;;;5038370;28;20040;-71
2023/05/05 08:29:04;;;;;;;3.13;1.70;;;22.40;48.60;;;;;;5039716;28;20513;-69
2023/05/05 08:31:38;;;;;;;2.33;1.58;;;22.50;48.70;;;;;;5037910;28;20036;-67
2023/05/05 08:34:05;;;;;;;2.65;1.77;;;22.50;48.60;;;;;;5040675;28;20028;-69
2023/05/05 08:36:31;;;;;;;3.60;1.70;;;22.50;48.60;;;;;;5039191;28;20032;-69
2023/05/05 08:38:58;;;;;;;3.28;1.80;;;22.40;48.60;;;;;;5039755;28;20068;-69
2023/05/05 08:41:25;;;;;;;2.30;1.60;;;22.50;48.60;;;;;;5039513;28;20040;-69
2023/05/05 08:43:50;;;;;;;2.88;1.77;;;22.40;48.60;;;;;;5042357;28;20029;-68
2023/05/05 08:46:16;;;;;;;3.83;1.70;;;22.50;48.80;;;;;;5041032;28;20025;-69
2023/05/05 08:48:43;;;;;;;3.88;1.98;;;22.50;48.70;;;;;;5041290;28;20058;-69
2023/05/05 08:51:17;;;;;;;2.80;1.80;;;22.40;48.60;;;;;;5036397;28;21025;-69
2023/05/05 08:54:00;;;;;;;3.10;1.90;;;22.50;48.70;;;;;;5047089;28;20485;-68
2023/05/05 08:56:31;;;;;;;2.65;1.85;;;22.50;48.70;;;;;;5039187;28;20502;-70
2023/05/05 08:58:58;;;;;;;2.38;1.63;;;22.50;48.70;;;;;;5039395;28;20138;-69
2023/05/05 09:01:24;;;;;;;3.28;1.80;;;22.50;48.70;;;;;;5035439;28;20947;-69
2023/05/05 09:03:51;;;;;;;3.20;1.77;;;22.50;48.70;;;;;;5039584;28;20025;-69
2023/05/05 09:06:19;;;;;;;2.50;1.55;;;22.50;48.70;;;;;;5039674;28;20567;-69
2023/05/05 09:08:46;;;;;;;4.00;2.00;;;22.50;48.80;;;;;;5037228;28;20118;-69
2023/05/05 09:11:11;;;;;;;2.47;1.80;;;22.50;48.70;;;;;;5039404;28;20550;-69
2023/05/05 09:13:37;;;;;;;2.85;1.70;;;22.50;48.80;;;;;;5043364;28;20033;-69
2023/05/05 09:16:03;;;;;;;3.20;1.60;;;22.50;48.70;;;;;;5038158;28;20025;-69
2023/05/05 09:18:28;;;;;;;3.15;2.00;;;22.50;48.80;;;;;;5040091;28;20122;-69
2023/05/05 09:20:54;;;;;;;2.95;1.90;;;22.50;48.80;;;;;;5037931;28;20029;-69
2023/05/05 09:23:20;;;;;;;2.60;1.80;;;22.50;48.80;;;;;;5038980;28;20018;-69
2023/05/05 09:26:00;;;;;;;2.85;1.92;;;22.50;48.80;;;;;;5038741;28;20033;-69
2023/05/05 09:28:26;;;;;;;3.90;2.17;;;22.50;49.00;;;;;;5039191;28;20615;-68
2023/05/05 09:30:52;;;;;;;4.53;2.83;;;22.50;49.20;;;;;;5036319;28;20108;-69
2023/05/05 09:33:29;;;;;;;3.90;3.10;;;22.50;49.60;;;;;;5039528;28;20033;-69
2023/05/05 09:35:55;;;;;;;4.18;3.08;;;22.50;50.00;;;;;;5039151;28;20112;-69
2023/05/05 09:38:23;;;;;;;3.10;2.45;;;22.50;49.90;;;;;;5035766;28;20159;-70
2023/05/05 09:40:50;;;;;;;2.85;2.30;;;22.50;49.80;;;;;;5037518;28;20029;-69
2023/05/05 09:43:17;;;;;;;4.60;2.60;;;22.50;49.70;;;;;;5037244;28;20195;-69
2023/05/05 09:45:43;;;;;;;2.75;2.03;;;22.50;49.70;;;;;;5036190;28;20040;-69
2023/05/05 09:48:28;;;;;;;2.63;2.20;;;22.50;49.50;;;;;;5038267;28;20079;-69
2023/05/05 09:50:56;;;;;;;4.18;2.33;;;22.50;49.60;;;;;;5036459;28;20569;-69
2023/05/05 09:53:22;;;;;;;3.45;2.25;;;22.50;49.60;;;;;;5038956;28;20145;-69
2023/05/05 09:55:53;;;;;;;3.03;2.15;;;22.50;49.60;;;;;;5035350;28;20032;-69
2023/05/05 09:58:23;;;;;;;3.03;2.20;;;22.50;49.70;;;;;;5037005;28;20515;-69
2023/05/05 10:00:49;;;;;;;3.42;2.25;;;22.50;49.40;;;;;;5037372;28;20098;-69
2023/05/05 10:03:15;;;;;;;2.72;2.00;;;22.50;49.70;;;;;;5034560;28;20025;-69
2023/05/05 10:05:58;;;;;;;2.80;2.00;;;22.50;49.40;;;;;;5036739;28;20532;-70
2023/05/05 10:08:30;;;;;;;2.97;1.90;;;22.50;49.30;;;;;;5038891;28;20028;-69
2023/05/05 10:11:05;;;;;;;3.38;2.05;;;22.50;49.30;;;;;;5038616;28;20034;-69
2023/05/05 10:13:35;;;;;;;2.70;1.98;;;22.50;49.30;;;;;;5036899;28;20473;-69
2023/05/05 10:16:03;;;;;;;2.47;1.80;;;22.60;49.60;;;;;;5039643;28;20048;-69
2023/05/05 10:18:31;;;;;;;2.92;2.00;;;22.60;49.40;;;;;;5038162;28;20492;-69
2023/05/05 10:20:58;;;;;;;2.95;2.22;;;22.60;49.50;;;;;;5035933;28;20036;-69
2023/05/05 10:23:30;;;;;;;2.78;2.00;;;22.60;49.50;;;;;;5037006;28;20454;-69
2023/05/05 10:26:02;;;;;;;3.10;1.90;;;22.60;49.80;;;;;;5040978;28;20097;-69
2023/05/05 10:28:33;;;;;;;2.70;1.95;;;22.60;49.70;;;;;;5036674;28;20033;-70
2023/05/05 10:31:00;;;;;;;2.95;2.10;;;22.60;49.80;;;;;;5033211;28;20119;-71
2023/05/05 10:33:35;;;;;;;2.72;2.03;;;22.60;50.00;;;;;;5038415;28;20085;-72
2023/05/05 10:36:04;;;;;;;2.75;2.05;;;22.60;50.10;;;;;;5042584;28;20025;-71
2023/05/05 10:38:31;;;;;;;2.75;1.80;;;22.60;50.00;;;;;;5037721;28;20076;-71
2023/05/05 10:40:58;;;;;;;3.05;1.90;;;22.60;49.70;;;;;;5035172;28;20061;-71
2023/05/05 10:43:24;;;;;;;3.28;2.05;;;22.60;49.90;;;;;;5041660;28;20453;-71
2023/05/05 10:45:49;;;;;;;2.60;2.00;;;22.60;50.00;;;;;;5035178;28;20067;-66
2023/05/05 10:48:23;;;;;;;2.95;2.08;;;22.60;50.10;;;;;;5035184;28;20036;-67
2023/05/05 10:51:12;;;;;;;3.03;1.80;;;22.60;50.50;;;;;;5037881;28;20032;-68
2023/05/05 10:53:45;;;;;;;2.80;2.10;;;22.60;50.60;;;;;;5038705;28;20029;-67
2023/05/05 10:56:29;;;;;;;2.70;1.90;;;22.60;50.70;;;;;;5037673;28;20061;-66
2023/05/05 10:58:54;;;;;;;2.20;1.73;;;22.60;50.80;;;;;;5036352;28;20056;-66
2023/05/05 11:01:46;;;;;;;2.88;1.75;;;22.60;50.60;;;;;;5034334;28;20029;-66
2023/05/05 11:04:30;;;;;;;2.25;1.80;;;22.60;50.70;;;;;;5029979;28;20042;-66
2023/05/05 11:07:22;;;;;;;2.47;1.80;;;22.60;50.70;;;;;;5036840;28;20029;-66
2023/05/05 11:10:00;;;;;;;2.30;1.65;;;22.60;51.00;;;;;;5036025;28;20060;-66
2023/05/05 11:12:25;;;;;;;3.70;1.98;;;22.60;51.00;;;;;;5040630;28;20385;-65
2023/05/05 11:15:42;;;;;;;3.28;1.75;;;22.60;51.00;;;;;;5043137;28;20123;-66
2023/05/05 11:18:37;;;;;;;2.72;1.83;;;22.70;51.30;;;;;;5040672;28;20476;-66
2023/05/05 11:21:15;;;;;;;2.63;1.80;;;22.60;51.10;;;;;;5040593;28;20171;-66
2023/05/05 11:23:42;;;;;;;3.05;1.80;;;22.60;51.10;;;;;;5041801;28;20029;-67
2023/05/05 11:26:11;;;;;;;2.22;1.70;;;22.60;51.00;;;;;;5042433;28;20021;-65
2023/05/05 11:28:53;;;;;;;2.38;1.70;;;22.60;51.00;;;;;;5055886;28;20040;-67
2023/05/05 11:31:19;;;;;;;2.60;1.77;;;22.70;51.10;;;;;;5048282;28;20033;-67
2023/05/05 11:33:45;;;;;;;2.40;1.70;;;22.70;51.00;;;;;;5039906;28;20036;-66
2023/05/05 11:36:12;;;;;;;2.13;1.50;;;22.70;51.00;;;;;;5042195;28;20518;-66
2023/05/05 11:38:57;;;;;;;2.55;1.70;;;22.70;51.00;;;;;;5041180;28;20495;-66
2023/05/05 11:42:03;;;;;;;2.40;1.60;;;22.70;51.00;;;;;;5038552;28;20033;-66
2023/05/05 11:44:31;;;;;;;2.70;1.70;;;22.70;51.00;;;;;;5039295;28;20052;-67
2023/05/05 11:46:58;;;;;;;2.20;1.80;;;22.70;51.00;;;;;;5039619;28;20327;-67
2023/05/05 11:49:28;;;;;;;2.72;1.80;;;22.70;50.90;;;;;;5044051;28;20380;-67
2023/05/05 11:51:57;;;;;;;2.40;1.70;;;22.70;50.90;;;;;;5040948;28;20128;-67
2023/05/05 11:54:24;;;;;;;2.63;1.60;;;22.70;50.80;;;;;;5040219;28;20087;-67
2023/05/05 11:56:53;;;;;;;2.60;1.60;;;22.70;50.80;;;;;;5044329;28;20033;-65
2023/05/05 11:59:19;;;;;;;3.03;1.70;;;22.70;50.80;;;;;;5038536;28;20032;-67
2023/05/05 12:01:44;;;;;;;2.47;1.60;;;22.70;50.80;;;;;;5036370;28;20469;-66
2023/05/05 12:04:11;;;;;;;2.20;1.70;;;22.70;50.80;;;;;;5053863;28;20025;-66
2023/05/05 12:06:38;;;;;;;2.50;1.67;;;22.70;50.70;;;;;;5041116;28;20493;-67
2023/05/05 12:09:04;;;;;;;2.00;1.45;;;22.70;50.70;;;;;;5040635;28;20026;-67
2023/05/05 12:11:30;;;;;;;1.90;1.42;;;22.70;50.70;;;;;;5040921;28;20071;-67
2023/05/05 12:14:11;;;;;;;2.13;1.58;;;22.70;50.70;;;;;;5037994;28;20033;-67
2023/05/05 12:16:37;;;;;;;2.42;1.60;;;22.70;50.70;;;;;;5046425;28;20032;-66
2023/05/05 12:19:07;;;;;;;2.58;1.52;;;22.70;50.60;;;;;;5038634;28;20446;-67
2023/05/05 12:21:33;;;;;;;2.00;1.48;;;22.80;50.60;;;;;;5046573;28;20412;-67
2023/05/05 12:24:00;;;;;;;2.85;1.85;;;22.80;50.60;;;;;;5055838;28;20025;-66
2023/05/05 12:26:27;;;;;;;2.10;1.50;;;22.80;50.60;;;;;;5038421;28;20026;-67
2023/05/05 12:28:57;;;;;;;1.80;1.48;;;22.80;50.60;;;;;;5073766;28;20033;-66
2023/05/05 12:31:33;;;;;;;2.83;1.80;;;22.80;50.60;;;;;;5038000;28;20112;-66
2023/05/05 12:33:58;;;;;;;2.35;1.55;;;22.80;50.60;;;;;;5039602;28;20036;-66
2023/05/05 12:36:24;;;;;;;2.42;1.40;;;22.80;50.60;;;;;;5038956;28;20032;-66
2023/05/05 12:38:50;;;;;;;1.83;1.35;;;22.80;50.50;;;;;;5037677;28;20067;-66
2023/05/05 12:41:20;;;;;;;1.80;1.45;;;22.80;50.50;;;;;;5041103;28;20358;-67
2023/05/05 12:43:46;;;;;;;2.10;1.70;;;22.80;50.50;;;;;;5042728;28;20025;-66
2023/05/05 12:46:12;;;;;;;2.17;1.63;;;22.80;50.50;;;;;;5041427;28;20021;-67
2023/05/05 12:48:40;;;;;;;2.05;1.60;;;22.80;50.50;;;;;;5041008;28;20059;-66
2023/05/05 12:51:19;;;;;;;1.77;1.40;;;22.80;50.50;;;;;;5041449;28;20095;-66
2023/05/05 12:53:46;;;;;;;1.90;1.50;;;22.80;50.40;;;;;;5040165;28;20036;-67
2023/05/05 12:56:33;;;;;;;2.90;1.50;;;22.80;50.40;;;;;;5039091;28;20365;-66